createdAt,value
2018-01-31T01:52:20.743Z,7.80
2018-01-31T01:53:42.885Z,7.70
2018-01-31T01:56:10.360Z,7.70
2018-01-31T01:58:37.788Z,7.70
2018-01-31T02:01:05.249Z,7.70
2018-01-31T02:03:32.701Z,7.70
2018-01-31T02:06:00.157Z,7.70
2018-01-31T02:08:27.600Z,7.70
2018-01-31T02:10:55.048Z,7.70
2018-01-31T02:13:22.493Z,7.70
2018-01-31T02:15:50.712Z,7.60
2018-01-31T02:18:18.159Z,7.60
2018-01-31T02:20:45.617Z,7.50
2018-01-31T02:23:13.068Z,7.50
2018-01-31T02:25:40.518Z,7.50
2018-01-31T02:28:07.956Z,7.40
2018-01-31T02:30:36.181Z,7.30
2018-01-31T02:33:03.632Z,7.30
2018-01-31T02:35:31.081Z,7.30
2018-01-31T02:37:58.532Z,7.20
2018-01-31T02:40:25.976Z,7.20
2018-01-31T02:42:53.430Z,7.20
2018-01-31T02:45:20.885Z,7.20
2018-01-31T02:47:48.336Z,7.20
2018-01-31T02:50:15.786Z,7.30
2018-01-31T02:52:44.004Z,7.30
2018-01-31T02:55:11.451Z,7.30
2018-01-31T02:57:38.905Z,7.30
2018-01-31T03:00:06.352Z,7.30
2018-01-31T03:02:33.810Z,7.30
2018-01-31T03:05:01.257Z,7.30
2018-01-31T03:07:28.716Z,7.40
2018-01-31T03:09:56.167Z,7.40
2018-01-31T03:12:23.609Z,7.40
2018-01-31T03:14:51.825Z,7.50
2018-01-31T03:17:19.269Z,7.40
2018-01-31T03:19:46.712Z,7.50
2018-01-31T03:22:14.165Z,7.50
2018-01-31T03:24:41.610Z,7.50
2018-01-31T03:27:09.829Z,7.50
2018-01-31T03:29:37.275Z,7.50
2018-01-31T03:32:04.737Z,7.50
2018-01-31T03:34:32.204Z,7.60
2018-01-31T03:36:59.654Z,7.60
2018-01-31T03:39:27.097Z,7.60
2018-01-31T03:41:54.553Z,7.60
2018-01-31T03:44:22.005Z,7.60
2018-01-31T03:46:49.465Z,7.70
2018-01-31T03:49:16.909Z,7.70
2018-01-31T03:51:44.361Z,7.70
2018-01-31T03:54:11.817Z,7.70
2018-01-31T03:56:39.271Z,7.70
2018-01-31T03:59:06.724Z,7.70
2018-01-31T04:01:34.172Z,7.70
2018-01-31T04:04:02.384Z,7.70
2018-01-31T04:06:29.828Z,7.70
2018-01-31T04:08:57.280Z,7.70
2018-01-31T04:11:24.727Z,7.70
2018-01-31T04:13:52.188Z,7.70
2018-01-31T04:16:19.624Z,7.70
2018-01-31T04:18:47.848Z,7.60
2018-01-31T04:21:15.308Z,7.60
2018-01-31T04:23:42.752Z,7.60
2018-01-31T04:26:10.189Z,7.70
2018-01-31T04:28:37.636Z,7.70
2018-01-31T04:31:05.081Z,7.70
2018-01-31T04:33:33.296Z,7.70
2018-01-31T04:36:00.741Z,7.70
2018-01-31T04:38:28.301Z,7.70
2018-01-31T04:40:55.735Z,7.70
2018-01-31T04:43:23.953Z,7.70
2018-01-31T04:45:51.396Z,7.70
2018-01-31T04:48:18.851Z,7.70
2018-01-31T04:50:46.288Z,7.70
2018-01-31T04:53:13.740Z,7.70
2018-01-31T04:55:41.193Z,7.80
2018-01-31T04:58:09.405Z,7.70
2018-01-31T05:00:36.853Z,7.70
2018-01-31T05:03:04.306Z,7.70
2018-01-31T05:05:31.760Z,7.70
2018-01-31T05:07:59.204Z,7.70
2018-01-31T05:10:26.653Z,7.70
2018-01-31T05:12:54.097Z,7.80
2018-01-31T05:15:22.609Z,7.80
2018-01-31T05:17:50.061Z,7.80
2018-01-31T05:20:17.565Z,7.80
2018-01-31T05:22:44.958Z,7.80
2018-01-31T05:25:12.413Z,7.80
2018-01-31T05:27:39.864Z,7.80
2018-01-31T05:30:08.077Z,7.80
2018-01-31T05:32:35.520Z,7.80
2018-01-31T05:35:02.972Z,7.80
2018-01-31T05:37:30.415Z,7.80
2018-01-31T05:39:57.865Z,7.80
2018-01-31T05:42:26.888Z,7.80
2018-01-31T05:44:54.344Z,7.80
2018-01-31T05:47:21.794Z,7.80
2018-01-31T05:49:49.244Z,7.80
2018-01-31T05:52:16.689Z,7.80
2018-01-31T05:54:44.140Z,7.70
2018-01-31T05:57:12.355Z,7.70
2018-01-31T05:59:39.799Z,7.70
2018-01-31T06:02:07.249Z,7.70
2018-01-31T06:04:34.701Z,7.70
2018-01-31T06:07:02.145Z,7.70
2018-01-31T06:09:29.593Z,7.60
2018-01-31T06:11:57.816Z,7.70
2018-01-31T06:14:25.256Z,7.70
2018-01-31T06:16:52.705Z,7.70
2018-01-31T06:19:20.152Z,7.70
2018-01-31T06:21:47.609Z,7.70
2018-01-31T06:24:15.051Z,7.70
2018-01-31T06:26:43.264Z,7.70
2018-01-31T06:29:10.713Z,7.70
2018-01-31T06:31:38.167Z,7.80
2018-01-31T06:34:05.622Z,7.80
2018-01-31T06:36:33.069Z,7.80
2018-01-31T06:39:00.518Z,7.90
2018-01-31T06:41:27.970Z,7.90
2018-01-31T06:43:55.414Z,7.90
2018-01-31T06:46:23.632Z,7.90
2018-01-31T06:48:51.081Z,7.80
2018-01-31T06:51:18.536Z,7.90
2018-01-31T06:53:45.980Z,7.90
2018-01-31T06:56:13.434Z,7.90
2018-01-31T06:58:40.872Z,7.90
2018-01-31T07:01:09.093Z,7.90
2018-01-31T07:03:36.540Z,7.90
2018-01-31T07:06:04.093Z,7.90
2018-01-31T07:08:31.522Z,7.90
2018-01-31T07:10:59.739Z,8.00
2018-01-31T07:13:27.180Z,8.00
2018-01-31T07:15:54.634Z,8.00
2018-01-31T07:18:22.081Z,8.00
2018-01-31T07:20:49.524Z,8.10
2018-01-31T07:23:17.733Z,8.10
2018-01-31T07:25:45.193Z,8.10
2018-01-31T07:28:12.648Z,8.10
2018-01-31T07:30:40.084Z,8.10
2018-01-31T07:33:07.537Z,8.10
2018-01-31T07:35:34.982Z,8.20
2018-01-31T07:38:03.200Z,8.20
2018-01-31T07:40:30.648Z,8.20
2018-01-31T07:42:58.105Z,8.20
2018-01-31T07:45:25.553Z,8.30
2018-01-31T07:47:53.008Z,8.30
2018-01-31T07:50:20.456Z,8.30
2018-01-31T07:52:47.903Z,8.30
2018-01-31T07:55:15.350Z,8.30
2018-01-31T07:57:43.569Z,8.30
2018-01-31T08:00:11.020Z,8.30
2018-01-31T08:02:38.468Z,8.40
2018-01-31T08:05:05.925Z,8.40
2018-01-31T08:07:33.393Z,8.40
2018-01-31T08:10:00.837Z,8.40
2018-01-31T08:12:28.293Z,8.40
2018-01-31T08:14:55.745Z,8.40
2018-01-31T08:17:23.206Z,8.40
2018-01-31T08:19:50.658Z,8.50
2018-01-31T08:22:18.112Z,8.50
2018-01-31T08:24:45.565Z,8.50
2018-01-31T08:27:13.029Z,8.50
2018-01-31T08:29:40.481Z,8.60
2018-01-31T08:32:07.932Z,8.60
2018-01-31T08:34:35.376Z,8.70
2018-01-31T08:37:02.829Z,8.60
2018-01-31T08:39:31.056Z,8.70
2018-01-31T08:41:58.509Z,8.70
2018-01-31T08:44:25.960Z,8.70
2018-01-31T08:49:28.047Z,8.80
2018-01-31T08:51:55.488Z,8.80
2018-01-31T08:54:22.945Z,8.80
2018-01-31T08:56:50.394Z,8.80
2018-01-31T08:59:17.848Z,8.80
2018-01-31T09:01:45.292Z,8.80
2018-01-31T09:04:12.752Z,8.90
2018-01-31T09:06:40.203Z,8.90
2018-01-31T09:09:07.656Z,8.90
2018-01-31T09:11:35.107Z,8.90
2018-01-31T09:14:03.329Z,9.00
2018-01-31T09:16:30.798Z,9.00
2018-01-31T09:18:58.245Z,9.00
2018-01-31T09:21:25.693Z,9.00
2018-01-31T09:23:53.153Z,9.00
2018-01-31T09:26:20.608Z,9.00
2018-01-31T09:28:48.089Z,9.00
2018-01-31T09:31:15.541Z,9.00
2018-01-31T09:33:43.001Z,9.00
2018-01-31T09:36:10.445Z,9.00
2018-01-31T09:38:37.892Z,9.00
2018-01-31T09:41:05.362Z,9.00
2018-01-31T09:43:32.797Z,9.00
2018-01-31T09:46:00.250Z,9.00
2018-01-31T09:48:27.697Z,9.00
2018-01-31T09:50:55.153Z,9.10
2018-01-31T09:53:22.596Z,9.10
2018-01-31T09:55:50.057Z,9.10
2018-01-31T09:58:17.554Z,9.20
2018-01-31T10:00:44.960Z,9.20
2018-01-31T10:03:12.413Z,9.30
2018-01-31T10:05:39.878Z,9.30
2018-01-31T10:08:07.325Z,9.40
2018-01-31T10:10:35.550Z,9.50
2018-01-31T10:13:02.998Z,9.50
2018-01-31T10:15:30.453Z,9.50
2018-01-31T10:17:57.903Z,9.60
2018-01-31T10:20:25.353Z,9.50
2018-01-31T10:22:52.801Z,9.60
2018-01-31T10:25:20.265Z,9.60
2018-01-31T10:27:47.715Z,9.60
2018-01-31T10:30:15.173Z,9.60
2018-01-31T10:32:42.624Z,9.60
2018-01-31T10:35:10.072Z,9.60
2018-01-31T10:37:37.521Z,9.60
2018-01-31T10:40:05.741Z,9.60
2018-01-31T10:42:33.228Z,9.60
2018-01-31T10:45:00.641Z,9.70
2018-01-31T10:47:28.095Z,9.70
2018-01-31T10:49:55.646Z,9.70
2018-01-31T10:52:23.588Z,9.70
2018-01-31T10:57:28.821Z,9.80
2018-01-31T10:59:46.730Z,9.80
2018-01-31T11:02:14.181Z,9.80
2018-01-31T11:04:41.626Z,9.80
2018-01-31T11:07:09.086Z,9.90
2018-01-31T11:09:36.529Z,9.80
2018-01-31T11:12:04.086Z,9.90
2018-01-31T11:14:31.534Z,9.90
2018-01-31T11:16:58.988Z,9.90
2018-01-31T11:19:26.428Z,9.90
2018-01-31T11:21:54.649Z,9.90
2018-01-31T11:24:22.098Z,9.90
2018-01-31T11:26:49.553Z,9.90
2018-01-31T11:29:16.998Z,9.90
2018-01-31T11:31:44.459Z,9.90
2018-01-31T11:34:11.910Z,9.90
2018-01-31T11:36:39.375Z,10.00
2018-01-31T11:39:06.817Z,9.90
2018-01-31T11:41:34.287Z,10.00
2018-01-31T11:44:01.748Z,10.00
2018-01-31T11:46:29.196Z,10.10
2018-01-31T11:48:56.654Z,10.10
2018-01-31T11:51:24.111Z,10.10
2018-01-31T11:53:51.562Z,10.10
2018-01-31T11:56:19.017Z,10.10
2018-01-31T11:58:46.469Z,10.20
2018-01-31T12:01:13.937Z,10.20
2018-01-31T12:03:41.394Z,10.30
2018-01-31T12:06:08.869Z,10.30
2018-01-31T12:08:36.331Z,10.40
2018-01-31T12:11:03.780Z,10.40
2018-01-31T12:16:42.793Z,10.40
2018-01-31T12:22:22.662Z,10.40
2018-01-31T12:25:01.969Z,10.40
2018-01-31T12:27:42.038Z,10.40
2018-01-31T12:30:21.448Z,10.40
2018-01-31T12:33:00.950Z,10.40
2018-01-31T12:35:40.364Z,10.40
2018-01-31T12:38:19.729Z,10.40
2018-01-31T12:40:46.690Z,10.30
2018-01-31T12:43:13.657Z,10.40
2018-01-31T12:45:40.612Z,10.40
2018-01-31T12:48:20.677Z,10.50
2018-01-31T12:51:00.084Z,10.50
2018-01-31T12:53:38.557Z,10.50
2018-01-31T12:56:17.990Z,10.60
2018-01-31T12:58:50.431Z,10.60
2018-01-31T13:01:44.460Z,10.80
2018-01-31T13:04:23.802Z,10.80
2018-01-31T13:07:03.218Z,10.90
2018-01-31T13:09:42.505Z,11.00
2018-01-31T13:12:22.669Z,11.10
2018-01-31T13:15:05.576Z,11.10
2018-01-31T13:17:45.654Z,11.10
2018-01-31T13:23:11.865Z,11.20
2018-01-31T13:25:51.129Z,11.20
2018-01-31T13:28:36.543Z,11.10
2018-01-31T13:31:21.805Z,11.10
2018-01-31T13:34:01.205Z,11.10
2018-01-31T13:36:41.264Z,11.20
2018-01-31T13:39:20.714Z,11.10
2018-01-31T13:42:00.067Z,11.20
2018-01-31T13:44:39.485Z,11.10
2018-01-31T13:47:18.809Z,11.10
2018-01-31T13:49:58.908Z,11.10
2018-01-31T13:52:38.401Z,11.10
2018-01-31T13:55:18.558Z,11.10
2018-01-31T13:57:58.750Z,11.10
2018-01-31T14:03:34.369Z,11.10
2018-01-31T14:06:14.531Z,11.00
2018-01-31T14:08:54.697Z,11.00
2018-01-31T14:11:33.958Z,11.00
2018-01-31T14:17:21.398Z,11.00
2018-01-31T14:20:00.676Z,10.90
2018-01-31T14:22:40.077Z,11.00
2018-01-31T14:25:19.374Z,10.90
2018-01-31T14:27:58.809Z,10.90
2018-01-31T14:30:38.280Z,10.90
2018-01-31T14:33:17.665Z,10.90
2018-01-31T14:35:57.832Z,10.80
2018-01-31T14:38:25.552Z,10.70
2018-01-31T14:40:52.517Z,10.70
2018-01-31T14:43:19.477Z,10.70
2018-01-31T14:45:47.200Z,10.80
2018-01-31T14:48:14.165Z,10.80
2018-01-31T14:50:41.124Z,10.80
2018-01-31T14:53:08.850Z,10.80
2018-01-31T14:55:35.813Z,10.70
2018-01-31T14:58:02.774Z,10.70
2018-01-31T15:00:29.745Z,10.80
2018-01-31T15:02:56.710Z,10.70
2018-01-31T15:05:23.679Z,10.70
2018-01-31T15:07:50.641Z,10.70
2018-01-31T15:10:17.605Z,10.60
2018-01-31T15:12:45.330Z,10.60
2018-01-31T15:15:12.289Z,10.60
2018-01-31T15:17:39.249Z,10.60
2018-01-31T15:20:06.225Z,10.50
2018-01-31T15:22:33.182Z,10.60
2018-01-31T15:25:00.154Z,10.50
2018-01-31T15:27:27.109Z,10.50
2018-01-31T15:29:54.077Z,10.50
2018-01-31T15:32:21.037Z,10.50
2018-01-31T15:34:48.765Z,10.50
2018-01-31T15:37:15.728Z,10.50
2018-01-31T15:39:42.689Z,10.50
2018-01-31T15:42:10.418Z,10.40
2018-01-31T15:44:37.396Z,10.40
2018-01-31T15:47:05.397Z,10.40
2018-01-31T15:49:32.340Z,10.40
2018-01-31T15:51:59.308Z,10.40
2018-01-31T15:54:26.260Z,10.40
2018-01-31T15:56:53.235Z,10.40
2018-01-31T15:59:20.194Z,10.40
2018-01-31T16:01:47.929Z,10.30
2018-01-31T16:04:14.890Z,10.30
2018-01-31T16:06:42.628Z,10.30
2018-01-31T16:09:09.584Z,10.30
2018-01-31T16:11:36.552Z,10.30
2018-01-31T16:14:04.276Z,10.20
2018-01-31T16:16:31.738Z,10.10
2018-01-31T16:19:11.025Z,10.20
2018-01-31T16:21:38.477Z,10.10
2018-01-31T16:24:05.924Z,10.10
2018-01-31T16:26:33.385Z,10.10
2018-01-31T16:29:12.656Z,10.10
2018-01-31T16:31:51.956Z,10.10
2018-01-31T16:34:19.405Z,10.10
2018-01-31T16:36:47.629Z,10.00
2018-01-31T16:39:15.081Z,10.00
2018-01-31T16:41:42.542Z,10.00
2018-01-31T16:44:10.013Z,10.00
2018-01-31T16:46:37.476Z,10.00
2018-01-31T16:49:04.929Z,10.00
2018-01-31T16:51:32.385Z,10.00
2018-01-31T16:53:59.839Z,10.00
2018-01-31T16:56:27.308Z,10.00
2018-01-31T16:58:54.748Z,9.90
2018-01-31T17:01:22.194Z,9.90
2018-01-31T17:03:49.652Z,9.90
2018-01-31T17:06:17.092Z,9.90
2018-01-31T17:08:44.549Z,10.00
2018-01-31T17:11:12.006Z,10.00
2018-01-31T17:13:39.478Z,10.00
2018-01-31T17:16:06.920Z,9.90
2018-01-31T17:18:34.379Z,9.90
2018-01-31T17:21:01.822Z,9.90
2018-01-31T17:23:29.273Z,9.80
2018-01-31T17:25:59.684Z,9.80
2018-01-31T17:28:27.151Z,9.80
2018-01-31T17:30:54.589Z,9.80
2018-01-31T17:33:22.808Z,9.70
2018-01-31T17:35:50.248Z,9.70
2018-01-31T17:38:17.704Z,9.70
2018-01-31T17:40:45.154Z,9.70
2018-01-31T17:43:12.604Z,9.60
2018-01-31T17:45:40.069Z,9.60
2018-01-31T17:48:07.537Z,9.50
2018-01-31T17:50:34.990Z,9.50
2018-01-31T17:53:02.441Z,9.50
2018-01-31T17:55:29.901Z,9.40
2018-01-31T17:57:57.360Z,9.40
2018-01-31T18:00:24.808Z,9.40
2018-01-31T18:02:52.266Z,9.30
2018-01-31T18:05:19.709Z,9.30
2018-01-31T18:07:47.173Z,9.20
2018-01-31T18:10:14.617Z,9.20
2018-01-31T18:12:42.069Z,9.10
2018-01-31T18:15:10.297Z,9.00
2018-01-31T18:17:37.743Z,9.00
2018-01-31T18:20:05.241Z,9.00
2018-01-31T18:22:32.642Z,9.00
2018-01-31T18:25:00.102Z,8.90
2018-01-31T18:27:27.558Z,8.90
2018-01-31T18:29:55.111Z,8.80
2018-01-31T18:32:22.541Z,8.80
2018-01-31T18:34:50.761Z,8.80
2018-01-31T18:37:18.237Z,8.80
2018-01-31T18:39:45.694Z,8.80
2018-01-31T18:42:13.136Z,8.70
2018-01-31T18:44:40.642Z,8.70
2018-01-31T18:47:08.898Z,8.60
2018-01-31T18:49:36.345Z,8.60
2018-01-31T18:52:03.798Z,8.60
2018-01-31T18:54:31.258Z,8.60
2018-01-31T18:56:58.736Z,8.60
2018-01-31T18:59:26.162Z,8.60
2018-01-31T19:01:53.621Z,8.60
2018-01-31T19:04:21.085Z,8.60
2018-01-31T19:06:48.545Z,8.50
2018-01-31T19:09:15.993Z,8.50
2018-01-31T19:11:43.441Z,8.50
2018-01-31T19:14:10.897Z,8.40
2018-01-31T19:16:38.396Z,8.40
2018-01-31T19:19:06.619Z,8.30
2018-01-31T19:21:34.108Z,8.30
2018-01-31T19:24:01.548Z,8.30
2018-01-31T19:26:29.001Z,8.30
2018-01-31T19:28:56.501Z,8.30
2018-01-31T19:31:24.709Z,8.20
2018-01-31T19:33:52.163Z,8.20
2018-01-31T19:36:19.613Z,8.20
2018-01-31T19:38:47.118Z,8.20
2018-01-31T19:41:14.561Z,8.20
2018-01-31T19:43:42.004Z,8.10
2018-01-31T19:46:09.466Z,8.10
2018-01-31T19:48:36.913Z,8.10
2018-01-31T19:51:04.369Z,8.00
2018-01-31T19:53:31.866Z,8.00
2018-01-31T19:55:59.369Z,8.00
2018-01-31T19:58:26.809Z,7.90
2018-01-31T20:00:54.260Z,7.90
2018-01-31T20:03:21.714Z,7.90
2018-01-31T20:05:49.980Z,7.80
2018-01-31T20:08:18.186Z,7.70
2018-01-31T20:10:45.651Z,7.70
2018-01-31T20:13:13.093Z,7.70
2018-01-31T20:15:40.610Z,7.70
2018-01-31T20:18:08.097Z,7.70
2018-01-31T20:20:36.356Z,7.60
2018-01-31T20:23:03.845Z,7.60
2018-01-31T20:25:31.310Z,7.60
2018-01-31T20:27:58.788Z,7.60
2018-01-31T20:30:26.238Z,7.50
2018-01-31T20:32:53.689Z,7.50
2018-01-31T20:35:21.192Z,7.60
2018-01-31T20:37:48.690Z,7.50
2018-01-31T20:40:16.131Z,7.50
2018-01-31T20:42:43.577Z,7.50
2018-01-31T20:45:11.033Z,7.40
2018-01-31T20:47:39.299Z,7.40
2018-01-31T20:50:06.737Z,7.40
2018-01-31T20:52:34.196Z,7.30
2018-01-31T20:55:01.644Z,7.40
2018-01-31T20:57:29.089Z,7.40
2018-01-31T20:59:56.546Z,7.30
2018-01-31T21:02:23.985Z,7.30
2018-01-31T21:04:52.251Z,7.30
2018-01-31T21:07:19.750Z,7.30
2018-01-31T21:09:47.185Z,7.30
2018-01-31T21:12:14.696Z,7.30
2018-01-31T21:14:42.192Z,7.30
2018-01-31T21:17:09.687Z,7.20
2018-01-31T21:19:37.121Z,7.20
2018-01-31T21:22:04.625Z,7.20
2018-01-31T21:24:32.830Z,7.20
2018-01-31T21:27:00.285Z,7.20
2018-01-31T21:29:27.788Z,7.20
2018-01-31T21:31:55.237Z,7.20
2018-01-31T21:34:22.676Z,7.20
2018-01-31T21:36:50.162Z,7.20
2018-01-31T21:39:17.661Z,7.20
2018-01-31T21:41:45.121Z,7.20
2018-01-31T21:44:12.684Z,7.20
2018-01-31T21:46:40.166Z,7.20
2018-01-31T21:49:07.656Z,7.20
2018-01-31T21:51:35.089Z,7.20
2018-01-31T21:54:02.619Z,7.30
2018-01-31T21:56:30.069Z,7.30
2018-01-31T21:58:57.573Z,7.30
2018-01-31T22:01:25.065Z,7.30
2018-01-31T22:03:53.273Z,7.20
2018-01-31T22:06:20.772Z,7.20
2018-01-31T22:08:48.268Z,7.20
2018-01-31T22:11:15.704Z,7.30
2018-01-31T22:13:43.926Z,7.30
2018-01-31T22:16:11.373Z,7.30
2018-01-31T22:18:39.593Z,7.30
2018-01-31T22:21:07.853Z,7.30
2018-01-31T22:23:35.295Z,7.30
2018-01-31T22:26:02.747Z,7.30
2018-01-31T22:28:30.957Z,7.30
2018-01-31T22:30:59.185Z,7.30
2018-01-31T22:33:26.644Z,7.30
2018-01-31T22:35:54.092Z,7.40
2018-01-31T22:38:21.549Z,7.30
2018-01-31T22:40:48.997Z,7.30
2018-01-31T22:43:16.457Z,7.30
2018-01-31T22:45:43.947Z,7.30
2018-01-31T22:48:11.397Z,7.30
2018-01-31T22:50:38.842Z,7.30
2018-01-31T22:53:06.289Z,7.30
2018-01-31T22:55:33.745Z,7.40
2018-01-31T22:58:01.196Z,7.40
2018-01-31T23:00:28.654Z,7.40
2018-01-31T23:02:56.102Z,7.30
2018-01-31T23:05:23.557Z,7.30
2018-01-31T23:07:51.044Z,7.30
2018-01-31T23:10:18.497Z,7.40
2018-01-31T23:12:51.701Z,7.40
2018-01-31T23:15:19.153Z,7.40
2018-01-31T23:17:52.404Z,7.30
2018-01-31T23:20:19.859Z,7.30
2018-01-31T23:22:47.316Z,7.40
2018-01-31T23:25:14.776Z,7.40
2018-01-31T23:27:42.221Z,7.40
2018-01-31T23:30:09.673Z,7.30
2018-01-31T23:32:37.262Z,7.40
2018-01-31T23:35:04.714Z,7.40
2018-01-31T23:37:32.169Z,7.40
2018-01-31T23:39:59.676Z,7.40
2018-01-31T23:42:27.122Z,7.40
2018-01-31T23:44:54.572Z,7.40
2018-01-31T23:47:22.021Z,7.40
2018-01-31T23:49:49.475Z,7.40
2018-01-31T23:52:16.920Z,7.30
2018-01-31T23:54:44.377Z,7.40
2018-01-31T23:57:11.836Z,7.40
2018-01-31T23:59:39.290Z,7.40
